sensor_id;sensor_type;location;lat;lon;timestamp;pressure;altitude;pressure_sealevel;temperature;humidity
10466;BME280;5280;42.600;23.556;2023-04-04T00:01:55;91992.25;;;8.39;100.00
10466;BME280;5280;42.600;23.556;2023-04-04T00:04:23;91995.63;;;8.32;100.00
10466;BME280;5280;42.600;23.556;2023-04-04T00:06:49;91992.94;;;8.22;100.00
10466;BME280;5280;42.600;23.556;2023-04-04T00:09:18;91968.84;;;8.17;100.00
10466;BME280;5280;42.600;23.556;2023-04-04T00:11:46;92002.25;;;8.26;100.00
10466;BME280;5280;42.600;23.556;2023-04-04T00:14:12;92003.75;;;8.38;100.00
10466;BME280;5280;42.600;23.556;2023-04-04T00:16:39;92007.50;;;8.26;100.00
10466;BME280;5280;42.600;23.556;2023-04-04T00:19:06;92003.06;;;8.17;100.00
10466;BME280;5280;42.600;23.556;2023-04-04T00:21:33;92000.72;;;8.14;100.00
10466;BME280;5280;42.600;23.556;2023-04-04T00:24:00;91998.38;;;8.11;100.00
10466;BME280;5280;42.600;23.556;2023-04-04T00:26:28;91986.75;;;8.04;100.00
10466;BME280;5280;42.600;23.556;2023-04-04T00:28:54;91990.53;;;7.92;100.00
10466;BME280;5280;42.600;23.556;2023-04-04T00:31:21;91991.50;;;7.91;100.00
10466;BME280;5280;42.600;23.556;2023-04-04T00:33:48;91963.84;;;7.77;100.00
10466;BME280;5280;42.600;23.556;2023-04-04T00:36:15;91990.91;;;7.87;100.00
10466;BME280;5280;42.600;23.556;2023-04-04T00:38:41;91981.94;;;7.90;100.00
10466;BME280;5280;42.600;23.556;2023-04-04T00:41:08;91953.69;;;7.82;100.00
10466;BME280;5280;42.600;23.556;2023-04-04T00:43:38;91964.47;;;7.98;100.00
10466;BME280;5280;42.600;23.556;2023-04-04T00:46:07;91953.41;;;7.95;100.00
10466;BME280;5280;42.600;23.556;2023-04-04T00:48:39;91938.34;;;7.97;100.00
10466;BME280;5280;42.600;23.556;2023-04-04T00:51:06;91949.13;;;7.94;100.00
10466;BME280;5280;42.600;23.556;2023-04-04T00:53:33;91938.75;;;7.83;100.00
10466;BME280;5280;42.600;23.556;2023-04-04T00:56:01;91938.06;;;7.81;100.00
10466;BME280;5280;42.600;23.556;2023-04-04T00:58:28;91956.59;;;7.89;100.00
10466;BME280;5280;42.600;23.556;2023-04-04T01:00:58;91953.56;;;7.84;100.00
10466;BME280;5280;42.600;23.556;2023-04-04T01:03:25;91950.25;;;7.82;100.00
10466;BME280;5280;42.600;23.556;2023-04-04T01:05:53;91956.06;;;7.85;100.00
10466;BME280;5280;42.600;23.556;2023-04-04T01:08:22;91953.00;;;7.90;100.00
10466;BME280;5280;42.600;23.556;2023-04-04T01:10:50;91954.38;;;7.94;100.00
10466;BME280;5280;42.600;23.556;2023-04-04T01:13:17;91950.09;;;7.93;100.00
10466;BME280;5280;42.600;23.556;2023-04-04T01:15:44;91949.94;;;8.04;100.00
10466;BME280;5280;42.600;23.556;2023-04-04T01:18:14;91921.44;;;7.90;100.00
10466;BME280;5280;42.600;23.556;2023-04-04T01:20:47;91954.63;;;8.10;100.00
10466;BME280;5280;42.600;23.556;2023-04-04T01:23:17;91954.78;;;7.99;100.00
10466;BME280;5280;42.600;23.556;2023-04-04T01:25:46;91904.59;;;7.63;100.00
10466;BME280;5280;42.600;23.556;2023-04-04T01:28:13;91952.13;;;8.08;100.00
10466;BME280;5280;42.600;23.556;2023-04-04T01:30:41;91944.09;;;8.10;100.00
10466;BME280;5280;42.600;23.556;2023-04-04T01:33:12;91901.53;;;7.77;100.00
10466;BME280;5280;42.600;23.556;2023-04-04T01:35:42;91922.28;;;7.81;100.00
10466;BME280;5280;42.600;23.556;2023-04-04T01:38:21;91952.56;;;8.04;100.00
10466;BME280;5280;42.600;23.556;2023-04-04T01:40:55;91956.59;;;7.98;100.00
10466;BME280;5280;42.600;23.556;2023-04-04T01:43:23;91951.72;;;8.03;100.00
10466;BME280;5280;42.600;23.556;2023-04-04T01:45:50;91953.94;;;7.98;100.00
10466;BME280;5280;42.600;23.556;2023-04-04T01:48:17;91959.50;;;8.05;100.00
10466;BME280;5280;42.600;23.556;2023-04-04T01:50:43;91959.59;;;8.13;100.00
10466;BME280;5280;42.600;23.556;2023-04-04T01:53:11;91949.09;;;8.03;100.00
10466;BME280;5280;42.600;23.556;2023-04-04T01:55:40;91966.53;;;8.14;100.00
10466;BME280;5280;42.600;23.556;2023-04-04T01:58:08;91968.75;;;8.09;100.00
10466;BME280;5280;42.600;23.556;2023-04-04T02:00:35;91939.16;;;7.88;100.00
10466;BME280;5280;42.600;23.556;2023-04-04T02:03:02;91959.63;;;8.03;100.00
10466;BME280;5280;42.600;23.556;2023-04-04T02:05:29;91968.47;;;8.21;100.00
10466;BME280;5280;42.600;23.556;2023-04-04T02:07:58;91964.84;;;8.32;100.00
10466;BME280;5280;42.600;23.556;2023-04-04T02:10:25;91967.88;;;8.28;100.00
10466;BME280;5280;42.600;23.556;2023-04-04T02:12:54;91969.56;;;8.19;100.00
10466;BME280;5280;42.600;23.556;2023-04-04T02:15:22;91963.31;;;8.20;100.00
10466;BME280;5280;42.600;23.556;2023-04-04T02:17:49;91963.72;;;8.25;100.00
10466;BME280;5280;42.600;23.556;2023-04-04T02:20:16;91944.34;;;8.26;100.00
10466;BME280;5280;42.600;23.556;2023-04-04T02:22:49;91945.00;;;8.28;100.00
10466;BME280;5280;42.600;23.556;2023-04-04T02:25:18;91945.44;;;8.33;100.00
10466;BME280;5280;42.600;23.556;2023-04-04T02:27:45;91949.03;;;8.32;100.00
10466;BME280;5280;42.600;23.556;2023-04-04T02:30:12;91955.09;;;8.42;100.00
10466;BME280;5280;42.600;23.556;2023-04-04T02:32:40;91952.38;;;8.34;100.00
10466;BME280;5280;42.600;23.556;2023-04-04T02:35:08;91926.34;;;8.31;100.00
10466;BME280;5280;42.600;23.556;2023-04-04T02:37:35;91943.47;;;8.45;100.00
10466;BME280;5280;42.600;23.556;2023-04-04T02:40:02;91931.84;;;8.38;100.00
10466;BME280;5280;42.600;23.556;2023-04-04T02:42:29;91948.22;;;8.41;100.00
10466;BME280;5280;42.600;23.556;2023-04-04T02:44:56;91953.56;;;8.49;100.00
10466;BME280;5280;42.600;23.556;2023-04-04T02:47:23;91946.91;;;8.55;100.00
10466;BME280;5280;42.600;23.556;2023-04-04T02:49:51;91885.66;;;8.16;100.00
10466;BME280;5280;42.600;23.556;2023-04-04T02:52:19;91942.47;;;8.55;100.00
10466;BME280;5280;42.600;23.556;2023-04-04T02:54:46;91951.44;;;8.62;100.00
10466;BME280;5280;42.600;23.556;2023-04-04T02:57:14;91949.19;;;8.68;100.00
10466;BME280;5280;42.600;23.556;2023-04-04T02:59:40;91950.31;;;8.65;100.00
10466;BME280;5280;42.600;23.556;2023-04-04T03:02:07;91949.78;;;8.61;100.00
10466;BME280;5280;42.600;23.556;2023-04-04T03:04:37;91932.31;;;8.60;100.00
10466;BME280;5280;42.600;23.556;2023-04-04T03:07:05;91934.63;;;8.46;100.00
10466;BME280;5280;42.600;23.556;2023-04-04T03:09:32;91946.09;;;8.45;100.00
10466;BME280;5280;42.600;23.556;2023-04-04T03:11:59;91944.97;;;8.47;100.00
10466;BME280;5280;42.600;23.556;2023-04-04T03:14:26;91942.06;;;8.50;100.00
10466;BME280;5280;42.600;23.556;2023-04-04T03:16:54;91940.72;;;8.46;100.00
10466;BME280;5280;42.600;23.556;2023-04-04T03:19:21;91957.00;;;8.59;100.00
10466;BME280;5280;42.600;23.556;2023-04-04T03:21:48;91951.19;;;8.56;100.00
10466;BME280;5280;42.600;23.556;2023-04-04T03:24:16;91943.81;;;8.59;100.00
10466;BME280;5280;42.600;23.556;2023-04-04T03:26:43;91949.78;;;8.61;100.00
10466;BME280;5280;42.600;23.556;2023-04-04T03:29:10;91942.31;;;8.57;100.00
10466;BME280;5280;42.600;23.556;2023-04-04T03:31:37;91933.16;;;8.61;100.00
10466;BME280;5280;42.600;23.556;2023-04-04T03:34:04;91945.59;;;8.69;100.00
10466;BME280;5280;42.600;23.556;2023-04-04T03:36:31;91944.66;;;8.60;100.00
10466;BME280;5280;42.600;23.556;2023-04-04T03:38:58;91945.09;;;8.55;100.00
10466;BME280;5280;42.600;23.556;2023-04-04T03:41:26;91930.44;;;8.43;100.00
10466;BME280;5280;42.600;23.556;2023-04-04T03:43:53;91930.19;;;8.46;100.00
10466;BME280;5280;42.600;23.556;2023-04-04T03:46:20;91929.09;;;8.39;100.00
10466;BME280;5280;42.600;23.556;2023-04-04T03:48:46;91890.63;;;8.19;100.00
10466;BME280;5280;42.600;23.556;2023-04-04T03:51:13;91911.63;;;8.38;100.00
10466;BME280;5280;42.600;23.556;2023-04-04T03:53:40;91911.97;;;8.16;100.00
10466;BME280;5280;42.600;23.556;2023-04-04T03:56:07;91910.75;;;8.10;100.00
10466;BME280;5280;42.600;23.556;2023-04-04T03:58:35;91913.19;;;8.12;100.00
10466;BME280;5280;42.600;23.556;2023-04-04T04:01:02;91915.31;;;8.08;100.00
10466;BME280;5280;42.600;23.556;2023-04-04T04:03:32;91919.19;;;8.04;100.00
10466;BME280;5280;42.600;23.556;2023-04-04T04:05:59;91913.63;;;8.07;100.00
10466;BME280;5280;42.600;23.556;2023-04-04T04:08:26;91913.59;;;8.17;100.00
10466;BME280;5280;42.600;23.556;2023-04-04T04:10:53;91918.63;;;8.10;100.00
10466;BME280;5280;42.600;23.556;2023-04-04T04:13:20;91922.19;;;8.19;100.00
10466;BME280;5280;42.600;23.556;2023-04-04T04:15:48;91929.25;;;8.18;100.00
10466;BME280;5280;42.600;23.556;2023-04-04T04:18:15;91940.47;;;8.20;100.00
10466;BME280;5280;42.600;23.556;2023-04-04T04:20:45;91942.81;;;8.23;100.00
10466;BME280;5280;42.600;23.556;2023-04-04T04:23:11;91957.38;;;8.18;100.00
10466;BME280;5280;42.600;23.556;2023-04-04T04:25:38;91956.41;;;8.19;100.00
10466;BME280;5280;42.600;23.556;2023-04-04T04:28:05;91955.13;;;8.23;100.00
10466;BME280;5280;42.600;23.556;2023-04-04T04:30:32;91959.31;;;8.26;100.00
10466;BME280;5280;42.600;23.556;2023-04-04T04:33:00;91958.34;;;8.17;100.00
10466;BME280;5280;42.600;23.556;2023-04-04T04:35:28;91967.22;;;8.16;100.00
10466;BME280;5280;42.600;23.556;2023-04-04T04:37:55;91974.81;;;8.19;100.00
10466;BME280;5280;42.600;23.556;2023-04-04T04:40:21;91953.38;;;8.14;100.00
10466;BME280;5280;42.600;23.556;2023-04-04T04:42:48;91971.22;;;8.20;100.00
10466;BME280;5280;42.600;23.556;2023-04-04T04:45:15;91965.53;;;8.25;100.00
10466;BME280;5280;42.600;23.556;2023-04-04T04:47:42;91964.28;;;8.19;100.00
10466;BME280;5280;42.600;23.556;2023-04-04T04:50:10;91958.16;;;8.28;100.00
10466;BME280;5280;42.600;23.556;2023-04-04T04:52:38;91964.16;;;8.30;100.00
10466;BME280;5280;42.600;23.556;2023-04-04T04:55:06;91972.72;;;8.42;100.00
10466;BME280;5280;42.600;23.556;2023-04-04T04:57:34;91975.47;;;8.50;100.00
10466;BME280;5280;42.600;23.556;2023-04-04T05:00:02;91979.16;;;8.57;100.00
10466;BME280;5280;42.600;23.556;2023-04-04T05:02:33;91989.03;;;8.55;100.00
10466;BME280;5280;42.600;23.556;2023-04-04T05:05:00;91975.91;;;8.45;100.00
10466;BME280;5280;42.600;23.556;2023-04-04T05:07:28;91954.47;;;8.31;100.00
10466;BME280;5280;42.600;23.556;2023-04-04T05:09:55;91991.91;;;8.52;100.00
10466;BME280;5280;42.600;23.556;2023-04-04T05:12:22;91999.69;;;8.53;100.00
10466;BME280;5280;42.600;23.556;2023-04-04T05:14:49;91997.44;;;8.58;100.00
10466;BME280;5280;42.600;23.556;2023-04-04T05:17:15;92004.63;;;8.76;100.00
10466;BME280;5280;42.600;23.556;2023-04-04T05:19:47;92013.56;;;8.83;100.00
10466;BME280;5280;42.600;23.556;2023-04-04T05:22:14;92008.03;;;8.86;100.00
10466;BME280;5280;42.600;23.556;2023-04-04T05:24:44;91986.22;;;8.66;100.00
10466;BME280;5280;42.600;23.556;2023-04-04T05:27:11;92009.09;;;8.93;100.00
10466;BME280;5280;42.600;23.556;2023-04-04T05:29:41;92015.34;;;8.92;100.00
10466;BME280;5280;42.600;23.556;2023-04-04T05:32:07;92014.22;;;8.94;100.00
10466;BME280;5280;42.600;23.556;2023-04-04T05:34:34;92019.16;;;8.80;100.00
10466;BME280;5280;42.600;23.556;2023-04-04T05:37:01;92015.63;;;8.89;100.00
10466;BME280;5280;42.600;23.556;2023-04-04T05:39:28;92013.44;;;8.84;100.00
10466;BME280;5280;42.600;23.556;2023-04-04T05:41:56;92019.81;;;8.82;100.00
10466;BME280;5280;42.600;23.556;2023-04-04T05:44:23;92020.59;;;8.92;100.00
10466;BME280;5280;42.600;23.556;2023-04-04T05:46:49;92015.19;;;8.93;100.00
10466;BME280;5280;42.600;23.556;2023-04-04T05:49:16;92009.34;;;8.99;100.00
10466;BME280;5280;42.600;23.556;2023-04-04T05:51:43;92004.81;;;8.92;100.00
10466;BME280;5280;42.600;23.556;2023-04-04T05:54:10;92014.75;;;8.98;100.00
10466;BME280;5280;42.600;23.556;2023-04-04T05:56:38;92000.31;;;9.02;100.00
10466;BME280;5280;42.600;23.556;2023-04-04T05:59:07;92018.88;;;9.10;100.00
10466;BME280;5280;42.600;23.556;2023-04-04T06:01:34;92002.28;;;9.00;100.00
10466;BME280;5280;42.600;23.556;2023-04-04T06:04:00;92015.34;;;9.19;100.00
10466;BME280;5280;42.600;23.556;2023-04-04T06:06:27;92020.03;;;9.25;100.00
10466;BME280;5280;42.600;23.556;2023-04-04T06:08:54;92018.19;;;9.35;100.00
10466;BME280;5280;42.600;23.556;2023-04-04T06:11:21;92019.53;;;9.39;100.00
10466;BME280;5280;42.600;23.556;2023-04-04T06:13:48;92026.19;;;9.43;100.00
10466;BME280;5280;42.600;23.556;2023-04-04T06:16:21;92015.69;;;9.51;100.00
10466;BME280;5280;42.600;23.556;2023-04-04T06:18:48;91990.09;;;9.44;100.00
10466;BME280;5280;42.600;23.556;2023-04-04T06:21:14;92018.81;;;9.65;100.00
10466;BME280;5280;42.600;23.556;2023-04-04T06:23:41;92016.63;;;9.78;100.00
10466;BME280;5280;42.600;23.556;2023-04-04T06:26:08;92027.28;;;9.86;100.00
10466;BME280;5280;42.600;23.556;2023-04-04T06:28:34;92025.44;;;9.86;100.00
10466;BME280;5280;42.600;23.556;2023-04-04T06:31:04;92034.13;;;9.97;100.00
10466;BME280;5280;42.600;23.556;2023-04-04T06:33:32;92017.84;;;9.83;100.00
10466;BME280;5280;42.600;23.556;2023-04-04T06:35:59;92029.75;;;9.87;100.00
10466;BME280;5280;42.600;23.556;2023-04-04T06:38:26;92019.75;;;9.91;100.00
10466;BME280;5280;42.600;23.556;2023-04-04T06:40:53;92037.69;;;10.05;100.00
10466;BME280;5280;42.600;23.556;2023-04-04T06:43:20;92027.41;;;10.02;100.00
10466;BME280;5280;42.600;23.556;2023-04-04T06:45:51;92053.59;;;10.13;100.00
10466;BME280;5280;42.600;23.556;2023-04-04T06:48:18;92051.41;;;10.09;100.00
10466;BME280;5280;42.600;23.556;2023-04-04T06:50:49;92061.91;;;10.18;100.00
10466;BME280;5280;42.600;23.556;2023-04-04T06:53:16;92039.78;;;10.02;100.00
10466;BME280;5280;42.600;23.556;2023-04-04T06:55:43;92057.88;;;10.14;100.00
10466;BME280;5280;42.600;23.556;2023-04-04T06:58:09;92065.28;;;10.11;100.00
10466;BME280;5280;42.600;23.556;2023-04-04T07:00:36;92052.53;;;9.88;100.00
10466;BME280;5280;42.600;23.556;2023-04-04T07:03:03;92072.13;;;10.04;100.00
10466;BME280;5280;42.600;23.556;2023-04-04T07:05:30;92088.66;;;10.06;100.00
10466;BME280;5280;42.600;23.556;2023-04-04T07:07:58;92088.50;;;10.07;100.00
10466;BME280;5280;42.600;23.556;2023-04-04T07:10:25;92097.19;;;10.17;100.00
10466;BME280;5280;42.600;23.556;2023-04-04T07:12:52;92091.22;;;10.15;100.00
10466;BME280;5280;42.600;23.556;2023-04-04T07:15:19;92091.22;;;10.15;100.00
10466;BME280;5280;42.600;23.556;2023-04-04T07:17:46;92098.28;;;10.24;100.00
10466;BME280;5280;42.600;23.556;2023-04-04T07:20:12;92114.25;;;10.23;100.00
10466;BME280;5280;42.600;23.556;2023-04-04T07:22:40;92114.78;;;10.26;100.00
10466;BME280;5280;42.600;23.556;2023-04-04T07:25:10;92119.78;;;10.29;100.00
10466;BME280;5280;42.600;23.556;2023-04-04T07:27:37;92138.31;;;9.92;100.00
10466;BME280;5280;42.600;23.556;2023-04-04T07:30:06;92133.41;;;9.52;100.00
10466;BME280;5280;42.600;23.556;2023-04-04T07:32:33;92157.81;;;9.18;100.00
10466;BME280;5280;42.600;23.556;2023-04-04T07:34:59;92151.81;;;8.69;100.00
10466;BME280;5280;42.600;23.556;2023-04-04T07:37:26;92164.06;;;8.41;100.00
10466;BME280;5280;42.600;23.556;2023-04-04T07:39:53;92171.47;;;8.07;100.00
10466;BME280;5280;42.600;23.556;2023-04-04T07:42:21;92174.88;;;7.79;100.00
10466;BME280;5280;42.600;23.556;2023-04-04T07:44:48;92169.97;;;7.55;100.00
10466;BME280;5280;42.600;23.556;2023-04-04T07:47:15;92182.78;;;7.39;100.00
10466;BME280;5280;42.600;23.556;2023-04-04T07:49:42;92181.28;;;7.16;100.00
10466;BME280;5280;42.600;23.556;2023-04-04T07:52:09;92182.94;;;6.86;100.00
10466;BME280;5280;42.600;23.556;2023-04-04T07:54:36;92187.41;;;6.54;100.00
10466;BME280;5280;42.600;23.556;2023-04-04T07:57:04;92187.94;;;6.16;100.00
10466;BME280;5280;42.600;23.556;2023-04-04T07:59:35;92186.47;;;5.80;100.00
10466;BME280;5280;42.600;23.556;2023-04-04T08:02:02;92190.56;;;5.62;100.00
10466;BME280;5280;42.600;23.556;2023-04-04T08:04:29;92212.84;;;5.45;100.00
10466;BME280;5280;42.600;23.556;2023-04-04T08:06:55;92183.25;;;5.11;100.00
10466;BME280;5280;42.600;23.556;2023-04-04T08:09:22;92208.34;;;5.14;100.00
10466;BME280;5280;42.600;23.556;2023-04-04T08:11:52;92208.47;;;5.01;100.00
10466;BME280;5280;42.600;23.556;2023-04-04T08:14:19;92216.53;;;4.87;100.00
10466;BME280;5280;42.600;23.556;2023-04-04T08:16:47;92227.38;;;4.83;100.00
10466;BME280;5280;42.600;23.556;2023-04-04T08:19:14;92219.38;;;4.84;100.00
10466;BME280;5280;42.600;23.556;2023-04-04T08:21:42;92195.13;;;4.82;100.00
10466;BME280;5280;42.600;23.556;2023-04-04T08:24:09;92221.28;;;4.93;100.00
10466;BME280;5280;42.600;23.556;2023-04-04T08:26:35;92235.22;;;4.94;100.00
10466;BME280;5280;42.600;23.556;2023-04-04T08:29:02;92239.47;;;4.72;100.00
10466;BME280;5280;42.600;23.556;2023-04-04T08:31:29;92237.06;;;4.69;100.00
10466;BME280;5280;42.600;23.556;2023-04-04T08:33:57;92234.75;;;4.54;100.00
10466;BME280;5280;42.600;23.556;2023-04-04T08:36:26;92225.13;;;4.43;100.00
10466;BME280;5280;42.600;23.556;2023-04-04T08:38:53;92222.13;;;4.37;100.00
10466;BME280;5280;42.600;23.556;2023-04-04T08:41:20;92249.47;;;4.44;100.00
10466;BME280;5280;42.600;23.556;2023-04-04T08:43:49;92233.88;;;4.31;100.00
10466;BME280;5280;42.600;23.556;2023-04-04T08:46:21;92253.06;;;4.43;100.00
10466;BME280;5280;42.600;23.556;2023-04-04T08:48:49;92262.41;;;4.34;100.00
10466;BME280;5280;42.600;23.556;2023-04-04T08:51:21;92215.78;;;3.93;100.00
10466;BME280;5280;42.600;23.556;2023-04-04T08:53:48;92264.94;;;4.12;100.00
10466;BME280;5280;42.600;23.556;2023-04-04T08:56:15;92268.25;;;4.14;100.00
10466;BME280;5280;42.600;23.556;2023-04-04T08:58:42;92260.91;;;4.19;100.00
10466;BME280;5280;42.600;23.556;2023-04-04T09:01:09;92249.00;;;4.15;100.00
10466;BME280;5280;42.600;23.556;2023-04-04T09:03:36;92266.53;;;4.25;100.00
10466;BME280;5280;42.600;23.556;2023-04-04T09:06:04;92270.75;;;4.15;100.00
10466;BME280;5280;42.600;23.556;2023-04-04T09:08:33;92282.44;;;4.22;100.00
10466;BME280;5280;42.600;23.556;2023-04-04T09:11:01;92289.81;;;4.17;100.00
10466;BME280;5280;42.600;23.556;2023-04-04T09:13:29;92288.34;;;4.13;100.00
10466;BME280;5280;42.600;23.556;2023-04-04T09:15:56;92292.34;;;4.06;100.00
10466;BME280;5280;42.600;23.556;2023-04-04T09:18:24;92292.56;;;4.03;100.00
10466;BME280;5280;42.600;23.556;2023-04-04T09:20:51;92291.56;;;3.93;100.00
10466;BME280;5280;42.600;23.556;2023-04-04T09:23:18;92254.06;;;3.58;100.00
10466;BME280;5280;42.600;23.556;2023-04-04T09:25:48;92282.41;;;3.75;100.00
10466;BME280;5280;42.600;23.556;2023-04-04T09:28:16;92289.06;;;3.79;100.00
10466;BME280;5280;42.600;23.556;2023-04-04T09:30:42;92275.63;;;3.72;100.00
10466;BME280;5280;42.600;23.556;2023-04-04T09:33:12;92295.78;;;3.83;100.00
10466;BME280;5280;42.600;23.556;2023-04-04T09:35:43;92297.44;;;3.84;100.00
10466;BME280;5280;42.600;23.556;2023-04-04T09:38:11;92280.34;;;3.67;100.00
10466;BME280;5280;42.600;23.556;2023-04-04T09:40:40;92304.75;;;3.79;100.00
10466;BME280;5280;42.600;23.556;2023-04-04T09:43:11;92303.44;;;3.73;100.00
10466;BME280;5280;42.600;23.556;2023-04-04T09:45:39;92305.50;;;3.81;100.00
10466;BME280;5280;42.600;23.556;2023-04-04T09:48:06;92297.03;;;3.77;100.00
10466;BME280;5280;42.600;23.556;2023-04-04T09:50:35;92309.38;;;3.75;100.00
10466;BME280;5280;42.600;23.556;2023-04-04T09:53:03;92311.66;;;3.80;100.00
10466;BME280;5280;42.600;23.556;2023-04-04T09:55:31;92305.91;;;3.75;100.00
10466;BME280;5280;42.600;23.556;2023-04-04T09:57:59;92321.69;;;3.86;100.00
10466;BME280;5280;42.600;23.556;2023-04-04T10:00:31;92331.28;;;3.85;100.00
10466;BME280;5280;42.600;23.556;2023-04-04T10:03:04;92262.13;;;3.42;100.00
10466;BME280;5280;42.600;23.556;2023-04-04T10:05:31;92318.28;;;3.73;100.00
10466;BME280;5280;42.600;23.556;2023-04-04T10:07:58;92328.59;;;3.87;100.00
10466;BME280;5280;42.600;23.556;2023-04-04T10:10:26;92328.34;;;3.90;100.00
10466;BME280;5280;42.600;23.556;2023-04-04T10:12:56;92319.72;;;3.77;100.00
10466;BME280;5280;42.600;23.556;2023-04-04T10:15:23;92342.03;;;3.94;100.00
10466;BME280;5280;42.600;23.556;2023-04-04T10:17:54;92326.69;;;3.89;100.00
10466;BME280;5280;42.600;23.556;2023-04-04T10:20:23;92314.56;;;3.88;100.00
10466;BME280;5280;42.600;23.556;2023-04-04T10:22:50;92338.47;;;3.95;100.00
10466;BME280;5280;42.600;23.556;2023-04-04T10:25:17;92338.59;;;3.93;100.00
10466;BME280;5280;42.600;23.556;2023-04-04T10:27:44;92341.22;;;3.93;100.00
10466;BME280;5280;42.600;23.556;2023-04-04T10:30:12;92342.66;;;3.97;100.00
10466;BME280;5280;42.600;23.556;2023-04-04T10:32:48;92334.31;;;3.92;100.00
10466;BME280;5280;42.600;23.556;2023-04-04T10:35:18;92344.72;;;4.05;100.00
10466;BME280;5280;42.600;23.556;2023-04-04T10:37:53;92284.31;;;3.73;100.00
10466;BME280;5280;42.600;23.556;2023-04-04T10:40:25;92352.56;;;4.05;100.00
10466;BME280;5280;42.600;23.556;2023-04-04T10:42:54;92360.72;;;4.00;100.00
10466;BME280;5280;42.600;23.556;2023-04-04T10:45:22;92349.50;;;3.87;100.00
10466;BME280;5280;42.600;23.556;2023-04-04T10:47:50;92354.09;;;3.83;100.00
10466;BME280;5280;42.600;23.556;2023-04-04T10:50:19;92358.25;;;3.86;100.00
10466;BME280;5280;42.600;23.556;2023-04-04T10:52:46;92368.19;;;3.81;100.00
10466;BME280;5280;42.600;23.556;2023-04-04T10:55:14;92372.16;;;3.86;100.00
10466;BME280;5280;42.600;23.556;2023-04-04T10:57:43;92379.78;;;3.89;100.00
10466;BME280;5280;42.600;23.556;2023-04-04T11:00:13;92374.34;;;3.93;100.00
10466;BME280;5280;42.600;23.556;2023-04-04T11:02:47;92375.28;;;3.92;100.00
10466;BME280;5280;42.600;23.556;2023-04-04T11:05:19;92375.91;;;3.95;100.00
10466;BME280;5280;42.600;23.556;2023-04-04T11:07:49;92381.75;;;3.99;100.00
10466;BME280;5280;42.600;23.556;2023-04-04T11:10:24;92354.63;;;3.88;100.00
10466;BME280;5280;42.600;23.556;2023-04-04T11:12:54;92362.94;;;3.94;100.00
10466;BME280;5280;42.600;23.556;2023-04-04T11:15:24;92378.53;;;3.95;100.00
10466;BME280;5280;42.600;23.556;2023-04-04T11:17:56;92383.78;;;3.82;100.00
10466;BME280;5280;42.600;23.556;2023-04-04T11:20:28;92373.94;;;3.86;100.00
10466;BME280;5280;42.600;23.556;2023-04-04T11:23:08;92385.41;;;3.96;100.00
10466;BME280;5280;42.600;23.556;2023-04-04T11:25:39;92380.59;;;4.03;100.00
10466;BME280;5280;42.600;23.556;2023-04-04T11:28:11;92324.44;;;3.72;100.00
10466;BME280;5280;42.600;23.556;2023-04-04T11:30:41;92378.69;;;4.05;100.00
10466;BME280;5280;42.600;23.556;2023-04-04T11:33:24;92390.41;;;4.12;100.00
10466;BME280;5280;42.600;23.556;2023-04-04T11:35:57;92393.88;;;4.00;100.00
10466;BME280;5280;42.600;23.556;2023-04-04T11:38:26;92386.03;;;4.00;100.00
10466;BME280;5280;42.600;23.556;2023-04-04T11:40:53;92393.69;;;4.03;100.00
10466;BME280;5280;42.600;23.556;2023-04-04T11:43:24;92384.63;;;3.83;100.00
10466;BME280;5280;42.600;23.556;2023-04-04T11:45:51;92395.38;;;3.91;100.00
10466;BME280;5280;42.600;23.556;2023-04-04T11:48:21;92392.97;;;3.88;100.00
10466;BME280;5280;42.600;23.556;2023-04-04T11:50:48;92404.69;;;3.82;100.00
10466;BME280;5280;42.600;23.556;2023-04-04T11:53:17;92392.78;;;3.78;100.00
10466;BME280;5280;42.600;23.556;2023-04-04T11:55:47;92389.44;;;3.76;100.00
10466;BME280;5280;42.600;23.556;2023-04-04T11:58:16;92393.81;;;3.76;100.00
10466;BME280;5280;42.600;23.556;2023-04-04T12:00:46;92387.75;;;3.75;100.00
10466;BME280;5280;42.600;23.556;2023-04-04T12:03:15;92370.41;;;3.49;100.00
10466;BME280;5280;42.600;23.556;2023-04-04T12:05:43;92393.19;;;3.72;100.00
10466;BME280;5280;42.600;23.556;2023-04-04T12:08:13;92385.16;;;3.63;100.00
10466;BME280;5280;42.600;23.556;2023-04-04T12:10:41;92304.66;;;3.19;100.00
10466;BME280;5280;42.600;23.556;2023-04-04T12:13:08;92395.69;;;3.74;100.00
10466;BME280;5280;42.600;23.556;2023-04-04T12:15:36;92406.25;;;3.72;100.00
10466;BME280;5280;42.600;23.556;2023-04-04T12:18:06;92407.81;;;3.75;100.00
10466;BME280;5280;42.600;23.556;2023-04-04T12:20:33;92339.31;;;3.33;100.00
10466;BME280;5280;42.600;23.556;2023-04-04T12:23:00;92372.53;;;3.57;100.00
10466;BME280;5280;42.600;23.556;2023-04-04T12:25:27;92402.91;;;3.70;100.00
10466;BME280;5280;42.600;23.556;2023-04-04T12:28:01;92398.63;;;3.57;100.00
10466;BME280;5280;42.600;23.556;2023-04-04T12:30:32;92390.28;;;3.52;100.00
10466;BME280;5280;42.600;23.556;2023-04-04T12:32:59;92411.41;;;3.49;100.00
10466;BME280;5280;42.600;23.556;2023-04-04T12:35:25;92410.56;;;3.48;100.00
10466;BME280;5280;42.600;23.556;2023-04-04T12:38:00;92410.13;;;3.41;100.00
10466;BME280;5280;42.600;23.556;2023-04-04T12:40:34;92410.56;;;3.48;100.00
10466;BME280;5280;42.600;23.556;2023-04-04T12:43:07;92400.72;;;3.39;100.00
10466;BME280;5280;42.600;23.556;2023-04-04T12:45:37;92398.84;;;3.54;100.00
10466;BME280;5280;42.600;23.556;2023-04-04T12:48:12;92405.00;;;3.53;100.00
10466;BME280;5280;42.600;23.556;2023-04-04T12:50:50;92414.00;;;3.49;100.00
10466;BME280;5280;42.600;23.556;2023-04-04T12:53:19;92408.66;;;3.37;100.00
10466;BME280;5280;42.600;23.556;2023-04-04T12:55:47;92387.13;;;3.21;100.00
10466;BME280;5280;42.600;23.556;2023-04-04T12:58:16;92420.53;;;3.29;100.00
10466;BME280;5280;42.600;23.556;2023-04-04T13:00:43;92429.22;;;3.29;100.00
10466;BME280;5280;42.600;23.556;2023-04-04T13:03:12;92428.69;;;3.24;100.00
10466;BME280;5280;42.600;23.556;2023-04-04T13:05:41;92431.06;;;3.15;100.00